CheckWX is a tool to help pilots better visualize weather data.  It is not intended as a substitute for an official pre-flight weather briefing.

07:07:38 UTC

KOUN METAR
University of Oklahoma Westheimer Airport
Norman, Oklahoma, USA
Current

13 mins ago

KOUN 210655Z AUTO 08016KT 10SM VCTS SCT036 SCT049 BKN095 18/17 A2954 RMK AO2 LTG DSNT SW THRU N P0019 T01770166
Observed
May-21 @ 06:55 UTC
Wind
  • 080° at 16 KTS
Visibility
10 SM
Flight Rules
VFR
Conditions
Area Thunderstorm
Cloud Levels
  • Scattered at 3,600' AGL
  • Scattered at 4,900' AGL
  • Broken at 9,500' AGL
Temperature
18°C / 64°F
Dewpoint
17°C / 63°F
Humidity
94%
Altimeter
29.54" Hg
Pressure
1000.32 hPa
Current Rain
0.19"
Previous

33 mins ago

KOUN 210635Z AUTO 08017KT 10SM VCTS SCT036 SCT095 17/17 A2955 RMK AO2 LTG DSNT W THRU NE P0014 T01740165
Observed
May-21 @ 06:35 UTC
Wind
  • 080° at 17 KTS
Visibility
10 SM
Flight Rules
VFR
Conditions
Area Thunderstorm
Cloud Levels
  • Scattered at 3,600' AGL
  • Scattered at 9,500' AGL
Temperature
17°C / 63°F
Dewpoint
17°C / 63°F
Humidity
100%
Altimeter
29.55" Hg
Pressure
1000.72 hPa
Current Rain
0.14"
Previous

53 mins ago

KOUN 210615Z AUTO 08018G24KT 10SM VCTS CLR 17/16 A2952 RMK AO2 LTG DSNT W THRU N P0007 T01730164
Observed
May-21 @ 06:15 UTC
Wind
  • 080° at 18 KTS
  • Gusting to 24 KTS
Visibility
10 SM
Flight Rules
VFR
Conditions
Area Thunderstorm
Cloud Levels
  • Clear skies
Temperature
17°C / 63°F
Dewpoint
16°C / 61°F
Humidity
94%
Altimeter
29.52" Hg
Pressure
999.62 hPa
Current Rain
0.07"